createdAt,value
2019-03-10T00:00:48.269Z,2.47
2019-03-10T00:03:22.034Z,3.67
2019-03-10T00:05:53.581Z,14.23
2019-03-10T00:08:23.106Z,3.43
2019-03-10T00:10:52.842Z,2.30
2019-03-10T00:13:22.391Z,2.07
2019-03-10T00:15:51.795Z,2.70
2019-03-10T00:18:22.342Z,2.13
2019-03-10T00:20:53.698Z,2.20
2019-03-10T00:23:23.394Z,2.50
2019-03-10T00:25:52.903Z,2.60
2019-03-10T00:28:22.339Z,3.00
2019-03-10T00:30:51.771Z,1.80
2019-03-10T00:33:23.151Z,2.57
2019-03-10T00:35:52.478Z,2.43
2019-03-10T00:38:23.392Z,1.50
2019-03-10T00:41:27.864Z,3.13
2019-03-10T00:44:33.161Z,1.90
2019-03-10T00:47:44.444Z,2.80
2019-03-10T00:50:50.672Z,3.67
2019-03-10T00:53:20.199Z,3.50
2019-03-10T00:55:49.989Z,1.97
2019-03-10T00:58:19.690Z,1.10
2019-03-10T01:00:49.067Z,2.67
2019-03-10T01:03:18.404Z,1.80
2019-03-10T01:05:48.026Z,1.67
2019-03-10T01:08:18.216Z,2.60
2019-03-10T01:10:50.728Z,5.00
2019-03-10T01:13:20.198Z,7.60
2019-03-10T01:15:50.174Z,6.57
2019-03-10T01:18:20.607Z,5.30
2019-03-10T01:20:52.088Z,3.00
2019-03-10T01:23:24.430Z,3.67
2019-03-10T01:25:54.006Z,3.03
2019-03-10T01:28:26.193Z,1.37
2019-03-10T01:31:11.434Z,1.87
2019-03-10T01:34:34.278Z,2.10
2019-03-10T01:37:03.770Z,2.03
2019-03-10T01:39:34.894Z,4.17
2019-03-10T01:42:04.465Z,2.50
2019-03-10T01:44:33.912Z,4.47
2019-03-10T01:47:03.267Z,1.30
2019-03-10T01:49:32.826Z,1.97
2019-03-10T01:52:02.342Z,2.03
2019-03-10T01:54:32.963Z,4.90
2019-03-10T01:57:04.804Z,2.77
2019-03-10T01:59:34.524Z,4.10
2019-03-10T02:02:03.950Z,2.50
2019-03-10T02:04:33.281Z,8.43
2019-03-10T02:07:02.970Z,1.73
2019-03-10T02:09:32.381Z,2.87
2019-03-10T02:12:01.965Z,1.63
2019-03-10T02:14:32.799Z,2.13
2019-03-10T02:17:02.428Z,2.53
2019-03-10T02:19:33.297Z,1.97
2019-03-10T02:22:03.907Z,2.70
2019-03-10T02:24:35.332Z,2.17
2019-03-10T02:27:07.279Z,2.57
2019-03-10T02:29:36.730Z,3.47
2019-03-10T02:32:06.201Z,3.37
2019-03-10T02:34:37.130Z,1.97
2019-03-10T02:37:06.305Z,3.13
2019-03-10T02:39:35.619Z,2.70
2019-03-10T02:42:04.805Z,2.30
2019-03-10T02:44:34.053Z,2.80
2019-03-10T02:47:03.242Z,2.80
2019-03-10T02:49:32.432Z,3.63
2019-03-10T02:52:01.570Z,2.43
2019-03-10T02:54:30.798Z,2.00
2019-03-10T02:57:00.104Z,2.50
2019-03-10T02:59:29.289Z,2.60
2019-03-10T03:01:58.418Z,6.80
2019-03-10T03:04:27.593Z,2.67
2019-03-10T03:06:56.855Z,1.60
2019-03-10T03:09:26.001Z,1.50
2019-03-10T03:11:55.158Z,5.90
2019-03-10T03:14:24.391Z,6.53
2019-03-10T03:16:53.570Z,1.93
2019-03-10T03:19:22.768Z,2.13
2019-03-10T03:21:52.001Z,2.13
2019-03-10T03:24:21.189Z,2.80
2019-03-10T03:26:50.498Z,6.17
2019-03-10T03:29:19.805Z,1.43
2019-03-10T03:31:49.066Z,1.27
2019-03-10T03:34:18.366Z,3.63
2019-03-10T03:36:47.496Z,3.03
2019-03-10T03:39:19.716Z,2.70
2019-03-10T03:41:49.056Z,1.00
2019-03-10T03:44:18.210Z,1.97
2019-03-10T03:46:47.475Z,1.40
2019-03-10T03:49:16.601Z,2.20
2019-03-10T03:51:45.778Z,1.17
2019-03-10T03:54:14.940Z,1.60
2019-03-10T03:56:44.207Z,1.10
2019-03-10T03:59:13.488Z,1.60
2019-03-10T04:01:49.198Z,1.10
2019-03-10T04:04:18.377Z,2.03
2019-03-10T04:06:47.618Z,0.90
2019-03-10T04:09:16.752Z,2.30
2019-03-10T04:11:45.961Z,2.10
2019-03-10T04:14:15.140Z,1.47
2019-03-10T04:16:44.318Z,2.40
2019-03-10T04:19:13.480Z,1.23
2019-03-10T04:21:42.633Z,1.87
2019-03-10T04:24:11.853Z,1.17
2019-03-10T04:26:41.019Z,1.27
2019-03-10T04:29:10.173Z,1.83
2019-03-10T04:31:39.311Z,1.93
2019-03-10T04:34:08.510Z,1.83
2019-03-10T04:36:37.718Z,1.67
2019-03-10T04:39:07.887Z,1.83
2019-03-10T04:41:37.063Z,2.50
2019-03-10T04:44:06.291Z,1.43
2019-03-10T04:46:35.556Z,1.60
2019-03-10T04:49:04.720Z,6.10
2019-03-10T04:51:35.045Z,1.57
2019-03-10T04:54:04.148Z,7.87
2019-03-10T04:56:59.100Z,4.90
2019-03-10T04:59:28.545Z,1.30
2019-03-10T05:01:57.752Z,1.07
2019-03-10T05:04:26.925Z,1.77
2019-03-10T05:06:56.072Z,3.87
2019-03-10T05:09:25.229Z,3.70
2019-03-10T05:11:55.458Z,1.30
2019-03-10T05:14:24.704Z,1.40
2019-03-10T05:16:53.866Z,2.70
2019-03-10T05:19:23.102Z,1.17
2019-03-10T05:21:52.269Z,3.40
2019-03-10T05:24:21.491Z,1.20
2019-03-10T05:26:50.661Z,1.00
2019-03-10T05:29:19.929Z,1.20
2019-03-10T05:31:49.097Z,1.00
2019-03-10T05:34:18.298Z,2.47
2019-03-10T05:36:47.523Z,4.20
2019-03-10T05:39:16.655Z,1.43
2019-03-10T05:41:45.853Z,1.53
2019-03-10T05:44:15.059Z,1.73
2019-03-10T05:46:44.188Z,1.77
2019-03-10T05:49:13.339Z,1.20
2019-03-10T05:51:42.472Z,1.53
2019-03-10T05:54:11.661Z,1.40
2019-03-10T05:56:40.831Z,2.50
2019-03-10T05:59:10.020Z,3.03
2019-03-10T06:01:39.177Z,0.97
2019-03-10T06:04:08.392Z,3.77
2019-03-10T06:06:37.552Z,3.90
2019-03-10T06:09:07.515Z,1.70
2019-03-10T06:11:36.702Z,0.93
2019-03-10T06:14:05.825Z,3.73
2019-03-10T06:16:34.953Z,1.13
2019-03-10T06:19:04.095Z,1.63
2019-03-10T06:21:33.347Z,1.93
2019-03-10T06:24:02.641Z,4.83
2019-03-10T06:26:32.065Z,2.00
2019-03-10T06:29:01.322Z,6.17
2019-03-10T06:31:30.535Z,1.97
2019-03-10T06:33:59.701Z,3.87
2019-03-10T06:36:30.311Z,2.03
2019-03-10T06:38:59.551Z,2.00
2019-03-10T06:41:28.688Z,1.30
2019-03-10T06:43:57.930Z,1.60
2019-03-10T06:46:27.168Z,3.60
2019-03-10T06:48:56.333Z,3.07
2019-03-10T06:51:25.537Z,2.63
2019-03-10T06:53:54.697Z,2.10
2019-03-10T06:56:23.939Z,2.13
2019-03-10T06:58:53.091Z,2.90
2019-03-10T07:01:22.341Z,2.50
2019-03-10T07:03:51.538Z,1.43
2019-03-10T07:06:20.724Z,1.60
2019-03-10T07:08:49.918Z,1.57
2019-03-10T07:11:19.192Z,2.23
2019-03-10T07:13:48.468Z,2.47
2019-03-10T07:16:17.765Z,1.97
2019-03-10T07:18:46.930Z,2.37
2019-03-10T07:21:16.189Z,6.20
2019-03-10T07:23:45.424Z,1.60
2019-03-10T07:26:14.576Z,1.20
2019-03-10T07:28:49.165Z,3.60
2019-03-10T07:31:28.709Z,2.83
2019-03-10T07:34:32.185Z,1.40
2019-03-10T07:37:23.145Z,4.47
2019-03-10T07:40:17.760Z,7.17
2019-03-10T07:43:03.221Z,3.97
2019-03-10T07:45:43.296Z,2.17
2019-03-10T07:48:30.465Z,1.67
2019-03-10T07:51:08.415Z,2.10
2019-03-10T07:53:54.921Z,2.17
2019-03-10T07:56:37.499Z,3.80
2019-03-10T07:59:25.716Z,2.80
2019-03-10T08:02:16.809Z,5.53
2019-03-10T08:05:07.769Z,3.83
2019-03-10T08:07:58.948Z,4.30
2019-03-10T08:10:34.718Z,7.60
2019-03-10T08:13:25.961Z,4.43
2019-03-10T08:16:01.308Z,6.10
2019-03-10T08:18:36.317Z,6.47
2019-03-10T08:21:23.193Z,6.37
2019-03-10T08:24:04.412Z,6.97
2019-03-10T08:26:58.614Z,4.50
2019-03-10T08:29:45.840Z,7.13
2019-03-10T08:32:46.442Z,1.87
2019-03-10T08:35:31.307Z,1.43
2019-03-10T08:38:18.348Z,2.77
2019-03-10T08:41:00.044Z,1.03
2019-03-10T08:43:48.309Z,1.27
2019-03-10T08:46:28.924Z,1.00
2019-03-10T08:49:06.532Z,1.37
2019-03-10T08:51:54.751Z,6.40
2019-03-10T08:54:34.295Z,2.17
2019-03-10T08:57:25.283Z,1.13
2019-03-10T09:00:07.513Z,1.03
2019-03-10T09:03:05.783Z,1.87
2019-03-10T09:05:52.755Z,0.90
2019-03-10T09:08:28.637Z,1.83
2019-03-10T09:11:15.583Z,1.33
2019-03-10T09:14:03.809Z,0.80
2019-03-10T09:16:42.074Z,1.70
2019-03-10T09:19:39.178Z,3.53
2019-03-10T09:22:26.084Z,2.27
2019-03-10T09:25:12.221Z,0.90
2019-03-10T09:28:02.604Z,1.70
2019-03-10T09:30:53.805Z,1.77
2019-03-10T09:33:41.453Z,1.20
2019-03-10T09:36:38.336Z,0.97
2019-03-10T09:39:19.040Z,1.23
2019-03-10T09:42:07.270Z,1.97
2019-03-10T09:44:43.316Z,0.90
2019-03-10T09:47:26.449Z,1.93
2019-03-10T09:50:12.819Z,1.10
2019-03-10T09:53:07.083Z,1.20
2019-03-10T09:55:54.396Z,1.00
2019-03-10T09:58:40.613Z,1.20
2019-03-10T10:01:28.819Z,1.93
2019-03-10T10:04:32.317Z,1.10
2019-03-10T10:07:08.873Z,3.03
2019-03-10T10:10:06.164Z,1.57
2019-03-10T10:13:12.517Z,3.90
2019-03-10T10:15:49.245Z,3.30
2019-03-10T10:18:26.869Z,2.50
2019-03-10T10:21:15.104Z,1.60
2019-03-10T10:23:57.739Z,1.70
2019-03-10T10:26:55.987Z,1.17
2019-03-10T10:29:42.829Z,1.13
2019-03-10T10:32:26.179Z,1.30
2019-03-10T10:35:14.867Z,3.00
2019-03-10T10:38:03.136Z,1.77
2019-03-10T10:40:47.151Z,0.90
2019-03-10T10:43:44.321Z,1.03
2019-03-10T10:46:24.165Z,1.43
2019-03-10T10:48:59.068Z,1.30
2019-03-10T10:51:56.937Z,1.40
2019-03-10T10:55:00.572Z,1.00
2019-03-10T10:57:44.328Z,1.00
2019-03-10T11:00:36.581Z,6.83
2019-03-10T11:03:36.713Z,1.00
2019-03-10T11:06:33.626Z,3.20
2019-03-10T11:09:26.720Z,2.40
2019-03-10T11:12:08.357Z,1.77
2019-03-10T11:14:51.232Z,0.80
2019-03-10T11:17:40.233Z,4.50
2019-03-10T11:20:35.195Z,3.10
2019-03-10T11:23:22.225Z,2.50
2019-03-10T11:26:16.244Z,1.50
2019-03-10T11:29:07.260Z,2.93
2019-03-10T11:32:04.553Z,0.90
2019-03-10T11:34:59.990Z,1.43
2019-03-10T11:37:40.138Z,1.10
2019-03-10T11:40:21.435Z,0.90
2019-03-10T11:43:11.287Z,1.00
2019-03-10T11:45:58.296Z,0.80
2019-03-10T11:48:37.333Z,1.00
2019-03-10T11:51:28.297Z,2.57
2019-03-10T11:54:11.548Z,2.33
2019-03-10T11:56:49.257Z,0.80
2019-03-10T11:59:40.404Z,1.40
2019-03-10T12:02:19.976Z,1.63
2019-03-10T12:05:05.852Z,1.00
2019-03-10T12:07:43.574Z,1.00
2019-03-10T12:10:12.997Z,1.00
2019-03-10T12:12:44.272Z,2.80
2019-03-10T12:15:13.673Z,1.00
2019-03-10T12:17:42.899Z,3.27
2019-03-10T12:20:12.404Z,3.23
2019-03-10T12:22:41.798Z,2.40
2019-03-10T12:25:11.099Z,1.50
2019-03-10T12:27:40.377Z,1.50
2019-03-10T12:30:10.590Z,0.90
2019-03-10T12:32:39.987Z,1.00
2019-03-10T12:35:09.142Z,0.90
2019-03-10T12:37:38.425Z,0.90
2019-03-10T12:40:08.098Z,1.00
2019-03-10T12:42:37.270Z,0.90
2019-03-10T12:45:07.567Z,1.00
2019-03-10T12:47:38.624Z,1.23
2019-03-10T12:50:08.456Z,1.83
2019-03-10T12:52:37.729Z,1.93
2019-03-10T12:55:07.188Z,1.40
2019-03-10T12:57:36.470Z,1.87
2019-03-10T13:00:06.967Z,1.00
2019-03-10T13:02:36.267Z,1.40
2019-03-10T13:05:06.620Z,1.40
2019-03-10T13:07:35.923Z,1.10
2019-03-10T13:10:05.228Z,3.83
2019-03-10T13:12:34.533Z,2.23
2019-03-10T13:15:03.834Z,1.20
2019-03-10T13:17:33.057Z,3.53
2019-03-10T13:20:02.354Z,3.20
2019-03-10T13:22:31.646Z,1.30
2019-03-10T13:25:01.012Z,3.20
2019-03-10T13:27:30.164Z,2.63
2019-03-10T13:30:01.676Z,1.00
2019-03-10T13:32:30.460Z,1.10
2019-03-10T13:34:59.713Z,3.30
2019-03-10T13:37:28.947Z,1.40
2019-03-10T13:39:58.234Z,1.90
2019-03-10T13:42:27.440Z,2.10
2019-03-10T13:44:56.650Z,2.00
2019-03-10T13:47:26.037Z,2.13
2019-03-10T13:49:55.274Z,6.57
2019-03-10T13:52:24.553Z,1.93
2019-03-10T13:54:53.766Z,2.03
2019-03-10T13:57:23.091Z,2.40
2019-03-10T13:59:52.373Z,2.63
2019-03-10T14:02:22.643Z,5.37
2019-03-10T14:04:51.987Z,3.67
2019-03-10T14:07:21.187Z,2.90
2019-03-10T14:09:50.422Z,2.17
2019-03-10T14:12:20.791Z,1.53
2019-03-10T14:14:50.089Z,1.80
2019-03-10T14:17:19.418Z,1.97
2019-03-10T14:19:48.701Z,2.37
2019-03-10T14:22:18.003Z,4.50
2019-03-10T14:24:47.356Z,2.27
2019-03-10T14:27:16.644Z,3.47
2019-03-10T14:29:47.708Z,2.13
2019-03-10T14:32:16.974Z,2.60
2019-03-10T14:34:46.302Z,8.40
2019-03-10T14:37:15.606Z,2.37
2019-03-10T14:39:44.899Z,3.03
2019-03-10T14:42:14.412Z,5.40
2019-03-10T14:47:09.956Z,2.80
2019-03-10T14:49:39.214Z,4.90
2019-03-10T14:52:08.532Z,6.20
2019-03-10T14:54:37.757Z,4.70
2019-03-10T14:57:07.118Z,3.97
2019-03-10T14:59:36.283Z,2.03
2019-03-10T15:02:05.516Z,12.73
2019-03-10T15:04:34.737Z,3.53
2019-03-10T15:07:03.989Z,3.50
2019-03-10T15:09:33.267Z,3.20
2019-03-10T15:12:02.509Z,7.07
2019-03-10T15:14:31.744Z,2.67
2019-03-10T15:17:02.041Z,3.90
2019-03-10T15:19:31.573Z,2.90
2019-03-10T15:22:00.737Z,4.60
2019-03-10T15:24:30.034Z,3.83
2019-03-10T15:26:59.309Z,5.70
2019-03-10T15:29:28.591Z,11.30
2019-03-10T15:31:57.873Z,5.10
2019-03-10T15:34:27.141Z,9.07
2019-03-10T15:36:56.472Z,3.27
2019-03-10T15:39:27.326Z,8.07
2019-03-10T15:41:56.949Z,6.30
2019-03-10T15:44:26.270Z,4.23
2019-03-10T15:46:55.590Z,8.17
2019-03-10T15:49:25.034Z,8.17
2019-03-10T15:51:56.143Z,3.63
2019-03-10T15:54:25.348Z,9.27
2019-03-10T15:56:54.603Z,6.93
2019-03-10T15:59:28.363Z,6.93
2019-03-10T16:01:57.635Z,9.67
2019-03-10T16:04:27.039Z,7.43
2019-03-10T16:06:56.335Z,8.23
2019-03-10T16:09:25.577Z,3.87
2019-03-10T16:11:56.334Z,8.73
2019-03-10T16:14:25.591Z,6.50
2019-03-10T16:16:54.819Z,11.10
2019-03-10T16:19:24.099Z,7.83
2019-03-10T16:21:53.430Z,7.30
2019-03-10T16:24:22.770Z,10.07
2019-03-10T16:26:52.329Z,6.17
2019-03-10T16:29:21.630Z,8.10
2019-03-10T16:31:50.924Z,5.33
2019-03-10T16:34:20.330Z,12.43
2019-03-10T16:36:50.962Z,7.90
2019-03-10T16:39:22.180Z,10.03
2019-03-10T16:42:01.274Z,7.47
2019-03-10T16:44:33.358Z,9.10
2019-03-10T16:47:10.563Z,10.63
2019-03-10T16:49:40.107Z,10.87
2019-03-10T16:52:11.995Z,5.87
2019-03-10T16:54:42.565Z,9.43
2019-03-10T16:57:12.056Z,7.20
2019-03-10T16:59:43.999Z,7.30
2019-03-10T17:02:17.082Z,8.23
2019-03-10T17:04:47.671Z,6.30
2019-03-10T17:07:17.217Z,8.67
2019-03-10T17:09:50.480Z,8.77
2019-03-10T17:12:22.764Z,18.80
2019-03-10T17:14:52.337Z,4.37
2019-03-10T17:17:21.873Z,8.47
2019-03-10T17:19:51.537Z,7.23
2019-03-10T17:22:21.080Z,9.93
2019-03-10T17:24:50.779Z,8.50
2019-03-10T17:27:21.241Z,10.57
2019-03-10T17:29:51.931Z,7.70
2019-03-10T17:32:23.058Z,6.93
2019-03-10T17:34:52.617Z,9.10
2019-03-10T17:37:22.430Z,5.63
2019-03-10T17:39:51.917Z,5.13
2019-03-10T17:42:23.447Z,6.70
2019-03-10T17:44:53.135Z,7.93
2019-03-10T17:47:26.902Z,7.10
2019-03-10T17:49:56.915Z,7.10
2019-03-10T17:52:26.643Z,5.87
2019-03-10T17:54:57.242Z,9.27
2019-03-10T17:57:28.702Z,6.20
2019-03-10T17:59:59.893Z,7.17
2019-03-10T18:02:31.854Z,16.93
2019-03-10T18:05:06.265Z,6.03
2019-03-10T18:07:37.146Z,10.60
2019-03-10T18:10:13.736Z,9.03
2019-03-10T18:12:50.531Z,5.60
2019-03-10T18:15:21.904Z,8.00
2019-03-10T18:17:57.185Z,9.47
2019-03-10T18:20:33.250Z,5.20
2019-03-10T18:23:06.213Z,5.50
2019-03-10T18:25:39.024Z,6.27
2019-03-10T18:28:16.052Z,5.07
2019-03-10T18:30:53.171Z,7.20
2019-03-10T18:33:31.190Z,9.10
2019-03-10T18:36:13.224Z,9.03
2019-03-10T18:38:46.131Z,4.50
2019-03-10T18:41:19.384Z,7.23
2019-03-10T18:43:56.731Z,10.23
2019-03-10T18:46:29.716Z,7.87
2019-03-10T18:49:04.004Z,7.60
2019-03-10T18:51:41.172Z,7.33
2019-03-10T18:54:20.031Z,3.60
2019-03-10T18:56:51.516Z,13.93
2019-03-10T18:59:27.213Z,5.70
2019-03-10T19:02:01.226Z,9.63
2019-03-10T19:04:33.912Z,3.13
2019-03-10T19:07:13.018Z,6.30
2019-03-10T19:09:49.716Z,7.03
2019-03-10T19:12:24.496Z,5.83
2019-03-10T19:14:57.717Z,6.03
2019-03-10T19:17:34.748Z,4.60
2019-03-10T19:20:13.186Z,7.10
2019-03-10T19:22:47.254Z,4.67
2019-03-10T19:25:21.905Z,7.23
2019-03-10T19:27:52.126Z,8.83
2019-03-10T19:30:24.836Z,8.10
2019-03-10T19:32:54.557Z,10.10
2019-03-10T19:35:26.734Z,6.70
2019-03-10T19:37:56.888Z,6.17
2019-03-10T19:40:28.746Z,5.70
2019-03-10T19:42:59.858Z,10.43
2019-03-10T19:45:32.272Z,4.70
2019-03-10T19:48:09.246Z,6.30
2019-03-10T19:50:48.107Z,9.40
2019-03-10T19:53:24.695Z,10.17
2019-03-10T19:55:57.693Z,8.83
2019-03-10T19:58:33.021Z,9.20
2019-03-10T20:01:02.914Z,23.43
2019-03-10T20:03:36.235Z,7.27
2019-03-10T20:06:06.342Z,6.67
2019-03-10T20:08:37.282Z,5.33
2019-03-10T20:11:13.660Z,7.13
2019-03-10T20:13:43.229Z,8.57
2019-03-10T20:16:16.652Z,11.10
2019-03-10T20:18:50.897Z,11.63
2019-03-10T20:21:24.242Z,5.00
2019-03-10T20:23:53.931Z,8.03
2019-03-10T20:26:29.811Z,10.77
2019-03-10T20:29:04.082Z,8.53
2019-03-10T20:31:35.882Z,5.67
2019-03-10T20:34:06.809Z,5.40
2019-03-10T20:36:41.497Z,7.10
2019-03-10T20:39:12.329Z,7.03
2019-03-10T20:41:45.808Z,7.73
2019-03-10T20:44:26.553Z,10.53
2019-03-10T20:46:56.464Z,8.87
2019-03-10T20:49:32.151Z,7.43
2019-03-10T20:52:03.408Z,7.87
2019-03-10T20:54:37.510Z,11.17
2019-03-10T20:57:09.852Z,6.53
2019-03-10T20:59:46.360Z,7.03
2019-03-10T21:02:21.083Z,10.23
2019-03-10T21:04:50.673Z,3.00
2019-03-10T21:07:24.009Z,7.80
2019-03-10T21:09:57.439Z,8.03
2019-03-10T21:12:39.881Z,8.60
2019-03-10T21:15:05.750Z,5.37
2019-03-10T21:17:40.140Z,4.37
2019-03-10T21:20:11.343Z,6.63
2019-03-10T21:22:41.112Z,8.30
2019-03-10T21:25:13.272Z,8.33
2019-03-10T21:27:53.355Z,6.83
2019-03-10T21:30:24.894Z,5.45
2019-03-10T21:32:57.241Z,5.90
2019-03-10T21:35:27.036Z,3.90
2019-03-10T21:38:00.875Z,4.10
2019-03-10T21:40:30.754Z,9.03
2019-03-10T21:43:00.689Z,5.50
2019-03-10T21:45:31.531Z,3.10
2019-03-10T21:48:01.598Z,6.47
2019-03-10T21:50:31.787Z,7.90
2019-03-10T21:53:04.075Z,6.17
2019-03-10T21:55:37.017Z,5.00
2019-03-10T21:58:08.904Z,6.20
2019-03-10T22:00:42.211Z,4.63
2019-03-10T22:03:12.276Z,5.07
2019-03-10T22:05:43.142Z,3.30
2019-03-10T22:08:13.049Z,5.20
2019-03-10T22:10:43.038Z,7.90
2019-03-10T22:13:13.169Z,6.23
2019-03-10T22:15:44.909Z,9.20
2019-03-10T22:18:16.421Z,12.97
2019-03-10T22:20:47.122Z,3.73
2019-03-10T22:23:16.966Z,7.27
2019-03-10T22:25:50.402Z,10.20
2019-03-10T22:28:19.794Z,5.03
2019-03-10T22:30:50.602Z,6.20
2019-03-10T22:33:21.893Z,4.87
2019-03-10T22:35:51.880Z,5.17
2019-03-10T22:38:24.993Z,7.90
2019-03-10T22:41:04.263Z,9.20
2019-03-10T22:43:34.500Z,8.23
2019-03-10T22:46:04.366Z,10.43
2019-03-10T22:48:36.503Z,8.83
2019-03-10T22:51:07.650Z,7.77
2019-03-10T22:53:38.329Z,6.57
2019-03-10T22:56:08.577Z,11.17
2019-03-10T22:58:44.275Z,11.40
2019-03-10T23:01:16.831Z,10.67
2019-03-10T23:03:47.917Z,9.90
2019-03-10T23:06:20.779Z,8.07
2019-03-10T23:08:54.660Z,11.60
2019-03-10T23:11:27.426Z,15.27
2019-03-10T23:13:57.299Z,7.10
2019-03-10T23:16:27.227Z,18.17
2019-03-10T23:18:57.363Z,8.47
2019-03-10T23:21:29.189Z,9.70
2019-03-10T23:24:00.183Z,7.77
2019-03-10T23:26:31.282Z,14.73
2019-03-10T23:29:01.206Z,8.93
2019-03-10T23:31:36.818Z,9.20
2019-03-10T23:34:13.800Z,9.20
2019-03-10T23:36:50.233Z,6.20
2019-03-10T23:39:20.417Z,11.53
2019-03-10T23:41:54.965Z,11.33
2019-03-10T23:44:29.506Z,6.23
2019-03-10T23:47:01.224Z,6.80
2019-03-10T23:49:32.389Z,7.77
2019-03-10T23:52:05.218Z,9.07
2019-03-10T23:54:35.051Z,8.50
2019-03-10T23:57:10.040Z,7.00
2019-03-10T23:59:42.324Z,5.70
